• Join FlightAware (Why Join?)
  • Login
  • US Flag 
07:33AM EDT


 

Airport Tracker/Info


-or-


 

Live Flight TrackerFlight Track Log ✈ N500CD ✈ 20-Dec-2013 ✈ KGNV - KPBI

Flight Track Log - Related Links

Times and Time Zones

All times are in EST time to prevent confusion due to time zone crossing. See the N500CD flight status page for this flight to view local times or setup timezone preferences in your user account.

Time Position Orientation Groundspeed Altitude Reporting Facility
EST Latitude Longitude Course Direction KTS MPH feet Rate Location/Type
02:43PM 29.3956 -82.0775 153° Southeast 209 241 12,800  Level Jacksonville Center
02:44PM 29.3472 -82.0492 153° Southeast 198 228 14,500 1,500 Climbing Jacksonville Center
02:45PM 29.2992 -82.0233 155° Southeast 198 228 15,900 1,260 Climbing Jacksonville Center
02:46PM 29.2508 -81.9953 153° Southeast 193 222 17,100 780 Climbing Jacksonville Center
02:47PM 29.2006 -81.9506 142° Southeast 208 239 17,500 180 Climbing Jacksonville Center
02:48PM 29.1417 -81.8964 141° Southeast 241 277 17,500  Level Jacksonville Center
02:49PM 29.0783 -81.8353 140° Southeast 276 318 17,500  Level Jacksonville Center
02:50PM 29.0111 -81.7742 142° Southeast 295 339 17,500  Level Jacksonville Center
02:51PM 28.9522 -81.7181 140° Southeast 306 352 17,500  Level Jacksonville Center
02:52PM 28.8847 -81.6547 141° Southeast 312 359 17,500  Level Jacksonville Center
02:53PM 28.8175 -81.5917 141° Southeast 317 365 17,500  Level Jacksonville Center
02:54PM 28.7478 -81.5286 142° Southeast 317 365 17,500  Level Jacksonville Center
02:55PM 28.6783 -81.4633 140° Southeast 317 365 17,500  Level Jacksonville Center
02:56PM 28.6108 -81.4003 141° Southeast 322 371 17,500  Level Jacksonville Center
02:58PM 28.4681 -81.2867 145° Southeast 330 380 17,500  Level Miami Center
02:59PM 28.3925 -81.2364 150° Southeast 323 372 17,500  Level Miami Center
03:00PM 28.3189 -81.1864 149° Southeast 317 365 17,500  Level Miami Center
03:01PM 28.2431 -81.1364 150° Southeast 312 359 17,500  Level Miami Center
03:02PM 28.1778 -81.0914 149° Southeast 307 353 17,500  Level Miami Center
03:03PM 28.1019 -81.0417 150° Southeast 307 353 17,500  Level Miami Center
03:04PM 28.0203 -80.9844 148° Southeast 307 353 17,500  Level Miami Center
03:05PM 27.9464 -80.9347 149° Southeast 313 360 17,500  Level Miami Center
03:06PM 27.8708 -80.8828 149° Southeast 313 360 17,500  Level Miami Center
03:07PM 27.8011 -80.8381 150° Southeast 313 360 17,500  Level Miami Center
03:08PM 27.7211 -80.7814 148° Southeast 313 360 17,500  Level Miami Center
03:09PM 27.6433 -80.7294 149° Southeast 313 360 17,500  Level Miami Center
03:10PM 27.5817 -80.6875 149° Southeast 313 360 17,500  Level Miami Center
03:11PM 27.4975 -80.6333 150° Southeast 318 366 17,500  Level Miami Center
03:12PM 27.4133 -80.5767 149° Southeast 323 372 17,500  Level Miami Center
03:14PM 27.3337 -80.5057 149° Southeast  Level FlightAware Approximate
03:21PM 26.9906 -80.2763 146° Southeast  Level FlightAware Approximate
03:22PM 26.9431 -80.2406 146° Southeast  Level FlightAware Approximate
03:23PM 26.8918 -80.2126 156° South  Level FlightAware Approximate
03:24PM 26.8396 -80.1864 156° South  Level FlightAware Approximate
03:25PM 26.7898 -80.1577 163° South  Level FlightAware Approximate
03:26PM 26.7406 -80.1277 152° Southeast  Level FlightAware Approximate
03:27PM 26.6901 -80.0974 152° Southeast  Level FlightAware Approximate
03:28PM 26.6832 -80.0956 152° Southeast  Level Estimated
03:29PM 26.6832 -80.0956 152° Southeast  Level Estimated
03:30PM 26.6832 -80.0956 152° Southeast  Level Estimated
03:31PM 26.6832 -80.0956 152° Southeast  Level Estimated
03:32PM 26.6832 -80.0956 152° Southeast  Level Estimated
03:33PM 26.6832 -80.0956 152° Southeast  Level Estimated
03:34PM 26.6832 -80.0956 152° Southeast  Level Estimated
03:35PM 26.6832 -80.0956 152° Southeast  Level Estimated
03:36PM 26.6832 -80.0956 152° Southeast  Level Estimated
03:37PM 26.6832 -80.0956 152° Southeast  Level Estimated
03:38PM 26.6832 -80.0956 152° Southeast  Level Estimated
03:39PM 26.6832 -80.0956 152° Southeast  Level Estimated
03:40PM 26.6832 -80.0956 152° Southeast  Level Estimated
03:41PM 26.6832 -80.0956 152° Southeast  Level Estimated
03:42PM 26.6832 -80.0956 152° Southeast  Level Estimated
03:43PM 26.6832 -80.0956 152° Southeast  Level Estimated
03:44PM 26.6832 -80.0956 152° Southeast  Level Estimated
03:45PM 26.6832 -80.0956 152° Southeast  Level Estimated
03:46PM 26.6832 -80.0956 152° Southeast  Level Estimated
03:47PM 26.6832 -80.0956 152° Southeast  Level Estimated
03:48PM 26.6832 -80.0956 152° Southeast  Level Estimated
03:49PM 26.6832 -80.0956 152° Southeast  Level Estimated
03:50PM 26.6832 -80.0956 152° Southeast  Level Estimated
03:51PM 26.6832 -80.0956 152° Southeast  Level Estimated
03:52PM 26.6832 -80.0956 152° Southeast  Level Estimated
03:53PM 26.6832 -80.0956 152° Southeast  Level Estimated
03:54PM 26.6832 -80.0956 152° Southeast  Level Estimated
03:55PM 26.6832 -80.0956 152° Southeast  Level Estimated
03:56PM 26.6832 -80.0956 152° Southeast  Level Estimated
03:57PM 26.6832 -80.0956 152° Southeast  Level Estimated
03:58PM 26.6832 -80.0956 152° Southeast  Level Estimated